Time;durP1;ratioP1;P1;durP2;ratioP2;P2;SDS_P1;SDS_P2;PMS_P1;PMS_P2;Temp;Humidity;BMP_temperature;BMP_pressure;BME280_temperature;BME280_humidity;BME280_pressure;Samples;Min_cycle;Max_cycle;Signal;HPM_P1;HPM_P2
2023/01/07 00:01:43;;;;;;;51.73;29.77;;;;;;;40.77;38.06;101150.34;4826379;29;20455;-73
2023/01/07 00:04:13;;;;;;;74.53;29.97;;;;;;;40.79;38.24;101142.66;4826414;29;20970;-73
2023/01/07 00:06:41;;;;;;;69.17;31.37;;;;;;;40.64;38.51;101140.41;4826297;29;20429;-73
2023/01/07 00:09:11;;;;;;;63.87;32.97;;;;;;;40.77;38.07;101135.94;4826272;29;20429;-73
2023/01/07 00:11:39;;;;;;;66.93;32.47;;;;;;;40.94;38.05;101137.88;4825786;29;20520;-73
2023/01/07 00:14:07;;;;;;;63.73;32.60;;;;;;;40.95;37.95;101136.78;4826457;29;20548;-73
2023/01/07 00:16:35;;;;;;;74.07;31.27;;;;;;;40.91;38.14;101130.38;4826260;29;20444;-73
2023/01/07 00:19:03;;;;;;;75.77;34.53;;;;;;;40.89;37.54;101125.22;4842718;29;20440;-74
2023/01/07 00:21:30;;;;;;;69.63;30.13;;;;;;;40.91;37.59;101133.88;4826191;29;20511;-73
2023/01/07 00:23:59;;;;;;;72.73;32.10;;;;;;;41.07;37.70;101131.47;4825995;29;20486;-73
2023/01/07 00:26:28;;;;;;;72.23;32.90;;;;;;;40.93;37.47;101125.41;4825540;29;20516;-73
2023/01/07 00:28:54;;;;;;;53.00;30.83;;;;;;;40.92;37.47;101126.53;4825973;29;20424;-73
2023/01/07 00:31:23;;;;;;;80.90;31.63;;;;;;;40.95;37.50;101123.16;4825915;29;20431;-73
2023/01/07 00:36:42;;;;;;;64.60;33.83;;;;;;;41.04;37.36;101115.78;4842229;29;20389;-73
2023/01/07 00:39:13;;;;;;;60.17;31.33;;;;;;;40.99;37.55;101105.06;4842456;29;20500;-73
2023/01/07 00:42:52;;;;;;;52.47;27.63;;;;;;;41.11;37.56;101102.47;4825803;29;20546;-74
2023/01/07 00:44:26;;;;;;;77.73;33.87;;;;;;;40.95;38.01;101101.41;4841999;29;20467;-74
2023/01/07 00:46:51;;;;;;;62.17;33.20;;;;;;;41.05;37.73;101104.56;4842497;29;20441;-74
2023/01/07 00:49:17;;;;;;;100.47;37.37;;;;;;;40.94;37.56;101092.41;4826006;29;20424;-74
2023/01/07 00:51:43;;;;;;;84.20;33.10;;;;;;;41.03;37.56;101085.06;4842285;29;20413;-73
2023/01/07 00:54:09;;;;;;;67.37;36.70;;;;;;;40.81;38.52;101090.63;4825882;29;20495;-74
2023/01/07 00:56:35;;;;;;;71.03;30.97;;;;;;;40.85;37.77;101090.81;4825568;29;20453;-74
2023/01/07 00:59:01;;;;;;;77.00;36.63;;;;;;;40.79;38.12;101092.88;4825657;29;20444;-73
2023/01/07 01:01:27;;;;;;;61.87;30.80;;;;;;;40.85;38.28;101091.59;4825878;29;20425;-73
2023/01/07 01:03:53;;;;;;;66.00;29.63;;;;;;;40.76;38.10;101090.78;4842148;29;20466;-73
2023/01/07 01:06:19;;;;;;;88.07;37.83;;;;;;;40.83;38.18;101088.41;4825584;29;20436;-73
2023/01/07 01:08:46;;;;;;;70.40;32.87;;;;;;;40.83;37.73;101082.19;4826117;29;20420;-74
2023/01/07 01:11:15;;;;;;;71.50;33.27;;;;;;;40.86;37.64;101084.25;4825462;29;20453;-73
2023/01/07 01:13:42;;;;;;;90.17;34.70;;;;;;;41.05;37.74;101080.09;4841888;29;20472;-73
2023/01/07 01:16:16;;;;;;;64.63;33.37;;;;;;;41.07;37.55;101079.78;4842335;29;20823;-73
2023/01/07 01:18:45;;;;;;;72.33;33.33;;;;;;;40.98;37.58;101074.34;4825466;29;20450;-73
2023/01/07 01:21:15;;;;;;;73.07;34.03;;;;;;;40.90;37.84;101077.88;4841792;29;20851;-73
2023/01/07 01:23:42;;;;;;;78.77;35.20;;;;;;;40.73;38.11;101070.50;4825422;29;20463;-74
2023/01/07 01:26:16;;;;;;;69.87;32.20;;;;;;;40.70;38.06;101068.44;4841977;29;20452;-74
2023/01/07 01:28:43;;;;;;;64.87;29.00;;;;;;;40.70;38.25;101068.44;4825421;29;20535;-73
2023/01/07 01:31:10;;;;;;;76.73;35.63;;;;;;;40.89;37.94;101059.13;4825180;29;20417;-73
2023/01/07 01:33:36;;;;;;;80.50;34.10;;;;;;;40.84;37.72;101059.28;4825227;29;20435;-73
2023/01/07 01:36:04;;;;;;;59.13;32.30;;;;;;;41.00;37.47;101057.69;4825232;29;20448;-73
2023/01/07 01:38:30;;;;;;;66.37;31.67;;;;;;;40.81;37.92;101047.91;4827445;29;21006;-73
2023/01/07 01:40:56;;;;;;;76.57;35.90;;;;;;;40.71;38.27;101058.34;4828681;29;20813;-73
2023/01/07 01:43:31;;;;;;;68.93;36.67;;;;;;;40.75;38.04;101062.00;4828419;29;20479;-73
2023/01/07 01:46:11;;;;;;;82.40;32.40;;;;;;;40.89;37.91;101053.69;4828623;29;20438;-73
2023/01/07 01:48:41;;;;;;;62.33;34.47;;;;;;;40.71;38.40;101050.97;4828495;29;20432;-73
2023/01/07 01:51:10;;;;;;;60.47;31.87;;;;;;;40.75;38.08;101038.31;4828495;29;20504;-73
2023/01/07 01:53:36;;;;;;;73.77;34.70;;;;;;;40.76;38.31;101044.56;4828298;29;20500;-73
2023/01/07 01:56:09;;;;;;;71.33;34.37;;;;;;;40.84;38.04;101051.13;4828432;29;20462;-73
2023/01/07 01:58:41;;;;;;;78.27;34.57;;;;;;;40.71;37.77;101048.25;4828224;29;20424;-73
2023/01/07 02:01:06;;;;;;;69.93;35.80;;;;;;;40.52;38.24;101045.06;4828377;29;20450;-73
2023/01/07 02:03:35;;;;;;;57.20;34.50;;;;;;;40.79;37.90;101042.00;4828291;29;20424;-73
2023/01/07 02:06:01;;;;;;;66.93;34.33;;;;;;;40.63;38.02;101045.53;4828233;29;20428;-73
2023/01/07 02:08:28;;;;;;;74.73;33.13;;;;;;;40.52;38.74;101040.44;4828273;29;20425;-73
2023/01/07 02:11:32;;;;;;;75.00;36.70;;;;;;;40.70;38.37;101024.09;4828103;29;20493;-73
2023/01/07 02:14:19;;;;;;;63.57;31.37;;;;;;;40.83;37.55;101025.06;4827952;29;20467;-73
2023/01/07 02:17:04;;;;;;;74.37;33.40;;;;;;;40.62;38.01;101025.69;4827972;29;20861;-74
2023/01/07 02:20:09;;;;;;;76.43;37.03;;;;;;;40.57;38.22;101016.91;4844909;29;20789;-73
2023/01/07 02:23:00;;;;;;;69.27;36.63;;;;;;;40.69;37.58;101023.28;4828081;29;20439;-74
2023/01/07 02:25:46;;;;;;;82.87;32.43;;;;;;;40.69;37.98;101015.13;4827882;29;20996;-73
2023/01/07 02:28:27;;;;;;;80.23;38.40;;;;;;;40.60;37.90;101019.78;4800431;29;20485;-74
2023/01/07 02:31:20;;;;;;;88.17;38.47;;;;;;;40.48;38.21;101022.34;4828115;29;20443;-74
2023/01/07 02:34:04;;;;;;;75.07;35.03;;;;;;;40.55;38.39;101015.31;4827749;29;20467;-73
2023/01/07 02:36:46;;;;;;;102.17;36.70;;;;;;;40.68;38.01;101005.38;4828002;29;20435;-74
2023/01/07 02:39:22;;;;;;;77.73;36.00;;;;;;;40.84;37.61;101019.28;4827788;29;20433;-74
2023/01/07 02:41:58;;;;;;;85.90;34.77;;;;;;;40.70;37.53;101014.03;4844436;29;20400;-73
2023/01/07 02:44:35;;;;;;;71.17;33.40;;;;;;;40.75;37.44;101005.69;4827785;29;20432;-73
2023/01/07 02:47:35;;;;;;;74.60;36.37;;;;;;;40.41;38.18;101013.84;4827642;29;20471;-74
2023/01/07 02:50:01;;;;;;;64.70;31.13;;;;;;;40.23;38.66;101016.56;4826959;29;20452;-73
2023/01/07 02:52:31;;;;;;;61.47;33.83;;;;;;;40.37;38.28;101016.41;4827565;29;20476;-73
2023/01/07 02:55:00;;;;;;;69.90;35.70;;;;;;;40.72;37.94;101016.44;4827408;29;20468;-75
2023/01/07 02:57:36;;;;;;;90.13;35.83;;;;;;;40.55;37.76;101014.50;4844237;29;20453;-72
2023/01/07 03:00:26;;;;;;;75.80;35.60;;;;;;;40.62;38.13;101011.31;4844282;29;20523;-71
2023/01/07 03:03:20;;;;;;;68.63;35.37;;;;;;;40.56;38.25;101016.09;4827424;29;20493;-71
2023/01/07 03:06:04;;;;;;;75.53;34.37;;;;;;;40.64;37.71;101018.03;4827236;29;20828;-72
2023/01/07 03:08:45;;;;;;;74.70;35.77;;;;;;;40.66;37.97;101020.44;4844257;29;20441;-72
2023/01/07 03:11:12;;;;;;;85.13;38.27;;;;;;;40.77;37.41;101018.97;4827374;29;20458;-72
2023/01/07 03:14:16;;;;;;;67.67;37.00;;;;;;;40.80;37.51;101015.59;4827086;29;20545;-72
2023/01/07 03:16:49;;;;;;;88.93;37.33;;;;;;;40.42;37.94;101015.44;4827241;29;20991;-71
2023/01/07 03:19:19;;;;;;;86.33;37.40;;;;;;;40.70;37.66;101008.59;4827063;29;20440;-71
2023/01/07 03:21:49;;;;;;;72.47;33.20;;;;;;;40.60;38.04;101006.19;4827127;29;20460;-71
2023/01/07 03:24:16;;;;;;;94.17;37.17;;;;;;;40.40;38.29;101015.78;4826911;29;20460;-72
2023/01/07 03:26:47;;;;;;;79.97;36.50;;;;;;;40.63;37.62;101012.91;4827160;29;20783;-71
2023/01/07 03:29:15;;;;;;;83.60;36.40;;;;;;;40.58;37.85;101013.88;4826870;29;20433;-71
2023/01/07 03:32:03;;;;;;;85.40;37.40;;;;;;;40.57;38.33;101019.63;4826878;29;20428;-72
2023/01/07 03:34:32;;;;;;;104.10;39.67;;;;;;;40.29;38.22;101015.28;4826627;29;20499;-71
2023/01/07 03:37:07;;;;;;;100.27;41.77;;;;;;;40.29;38.27;101015.28;4826852;29;20509;-71
2023/01/07 03:39:37;;;;;;;80.53;41.23;;;;;;;40.66;37.78;101015.00;4826705;29;20952;-71
2023/01/07 03:44:52;;;;;;;84.93;43.73;;;;;;;40.71;37.67;101021.06;4824967;29;20413;-73
2023/01/07 03:47:19;;;;;;;83.67;39.00;;;;;;;40.65;37.60;101024.28;4823675;29;20804;-72
2023/01/07 03:49:45;;;;;;;71.00;38.70;;;;;;;40.68;37.84;101013.53;4823444;29;20417;-73
2023/01/07 03:52:11;;;;;;;62.13;33.23;;;;;;;40.63;37.78;101007.47;4824722;29;20474;-73
2023/01/07 03:54:37;;;;;;;86.90;36.90;;;;;;;40.56;37.95;101010.66;4823228;29;20469;-73
2023/01/07 03:57:03;;;;;;;78.50;39.20;;;;;;;40.61;38.10;101010.50;4823358;29;20418;-74
2023/01/07 03:59:29;;;;;;;94.13;38.00;;;;;;;40.73;37.64;101013.38;4823193;29;20446;-75
2023/01/07 04:01:55;;;;;;;80.17;38.70;;;;;;;40.64;37.91;101018.03;4822827;29;20453;-73
2023/01/07 04:04:21;;;;;;;84.77;38.70;;;;;;;40.69;37.73;101020.56;4823421;29;20440;-72
2023/01/07 04:06:47;;;;;;;77.57;38.07;;;;;;;40.68;37.61;101018.19;4823373;29;20422;-72
2023/01/07 04:09:14;;;;;;;84.37;38.10;;;;;;;40.73;37.51;101021.53;4823622;29;20430;-71
2023/01/07 04:11:40;;;;;;;85.77;36.87;;;;;;;40.78;37.29;101021.38;4824871;29;20417;-72
2023/01/07 04:14:06;;;;;;;57.33;35.43;;;;;;;40.67;37.60;101025.53;4823400;29;20449;-71
2023/01/07 04:16:32;;;;;;;89.60;37.60;;;;;;;40.77;37.46;101029.88;4823480;29;20441;-71
2023/01/07 04:18:58;;;;;;;83.33;38.80;;;;;;;40.72;37.37;101027.31;4823182;29;20456;-71
2023/01/07 04:21:24;;;;;;;74.30;35.83;;;;;;;40.69;37.27;101031.44;4823187;29;20426;-71
2023/01/07 04:23:50;;;;;;;81.60;38.27;;;;;;;40.58;37.55;101026.66;4824686;29;20890;-71
2023/01/07 04:26:16;;;;;;;64.70;33.60;;;;;;;40.63;37.42;101040.09;4823028;29;20434;-75
2023/01/07 04:28:42;;;;;;;66.43;38.60;;;;;;;40.78;37.08;101036.91;4822956;29;20976;-75
2023/01/07 04:31:08;;;;;;;98.50;36.93;;;;;;;40.77;37.59;101033.38;4823236;29;20421;-74
2023/01/07 04:33:34;;;;;;;76.27;33.27;;;;;;;40.64;37.66;101045.22;4822917;29;20522;-71
2023/01/07 04:36:01;;;;;;;74.43;36.30;;;;;;;40.73;37.71;101040.56;4823026;29;20425;-71
2023/01/07 04:38:27;;;;;;;84.27;35.13;;;;;;;40.70;37.25;101046.66;4822861;29;20482;-72
2023/01/07 04:40:53;;;;;;;92.70;36.40;;;;;;;40.64;37.39;101049.84;4822881;29;20429;-72
2023/01/07 04:43:18;;;;;;;79.00;37.43;;;;;;;40.55;37.18;101049.84;4822749;29;20541;-72
2023/01/07 04:45:44;;;;;;;93.33;39.17;;;;;;;40.61;37.29;101056.75;4822988;29;20429;-71
2023/01/07 04:48:10;;;;;;;62.83;37.50;;;;;;;40.51;37.63;101062.47;4822861;29;20863;-70
2023/01/07 04:50:36;;;;;;;64.77;38.50;;;;;;;40.52;37.76;101059.47;4822658;29;20555;-71
2023/01/07 04:53:02;;;;;;;78.80;37.33;;;;;;;40.42;37.85;101053.50;4822972;29;20471;-71
2023/01/07 04:55:28;;;;;;;85.37;37.87;;;;;;;40.33;38.08;101049.97;4824264;29;20457;-71
2023/01/07 04:57:54;;;;;;;104.93;45.07;;;;;;;40.23;38.22;101051.09;4822619;29;20453;-72
2023/01/07 05:00:21;;;;;;;80.40;41.00;;;;;;;40.33;38.63;101066.28;4822657;29;20426;-72
2023/01/07 05:02:46;;;;;;;78.70;43.40;;;;;;;40.46;37.98;101059.91;4822593;29;20422;-72
2023/01/07 05:05:12;;;;;;;85.97;47.13;;;;;;;40.40;37.72;101064.72;4822805;29;20435;-72
2023/01/07 05:07:38;;;;;;;100.50;48.43;;;;;;;40.36;37.57;101065.66;4824261;29;20441;-72
2023/01/07 05:10:05;;;;;;;68.23;44.80;;;;;;;40.35;37.77;101072.22;4822368;29;20458;-71
2023/01/07 05:12:35;;;;;;;92.33;50.00;;;;;;;40.20;38.07;101078.88;4822297;29;20425;-71
2023/01/07 05:15:02;;;;;;;77.30;50.20;;;;;;;40.23;38.10;101086.44;4822301;29;20484;-73
2023/01/07 05:17:29;;;;;;;113.27;61.63;;;;;;;40.26;38.05;101083.06;4822534;29;20433;-74
2023/01/07 05:19:55;;;;;;;99.47;56.87;;;;;;;40.17;38.53;101087.69;4822570;29;20453;-74
2023/01/07 05:22:21;;;;;;;93.77;61.17;;;;;;;40.13;38.38;101090.22;4823553;29;22451;-71
2023/01/07 05:24:46;;;;;;;94.00;52.57;;;;;;;40.08;38.63;101084.94;4822429;29;20425;-73
2023/01/07 05:27:13;;;;;;;96.03;49.53;;;;;;;40.08;38.78;101086.84;4822574;29;20441;-71
2023/01/07 05:29:39;;;;;;;96.30;51.33;;;;;;;40.05;38.25;101093.72;4822171;29;20521;-71
2023/01/07 05:32:05;;;;;;;101.53;54.27;;;;;;;39.93;38.61;101098.94;4822363;29;20449;-71
2023/01/07 05:34:31;;;;;;;86.33;52.50;;;;;;;39.97;38.61;101095.28;4821999;29;20530;-71
2023/01/07 05:36:57;;;;;;;108.33;55.03;;;;;;;40.04;38.47;101094.84;4822332;29;20429;-72
2023/01/07 05:39:23;;;;;;;91.27;50.57;;;;;;;39.82;38.66;101101.13;4822070;29;20422;-72
2023/01/07 05:41:49;;;;;;;81.10;50.80;;;;;;;39.82;38.98;101101.13;4823301;29;20474;-71
2023/01/07 05:44:15;;;;;;;81.10;50.77;;;;;;;39.94;38.84;101114.13;4840923;29;20456;-71
2023/01/07 05:46:40;;;;;;;83.33;50.47;;;;;;;39.90;38.70;101108.53;4824918;29;20950;-71
2023/01/07 05:49:07;;;;;;;102.70;54.97;;;;;;;39.90;38.82;101100.38;4825072;29;20961;-71
2023/01/07 05:51:33;;;;;;;93.10;52.90;;;;;;;39.99;38.59;101098.47;4825091;29;20459;-70
2023/01/07 05:53:59;;;;;;;83.60;50.83;;;;;;;40.10;38.63;101107.19;4825159;29;20503;-71
2023/01/07 05:56:25;;;;;;;92.47;47.33;;;;;;;40.14;38.08;101118.19;4825131;29;20456;-71
2023/01/07 05:58:51;;;;;;;95.77;49.13;;;;;;;40.10;38.28;101117.25;4825118;29;20488;-71
2023/01/07 06:01:16;;;;;;;101.40;50.27;;;;;;;40.12;37.99;101118.53;4825001;29;20426;-71
2023/01/07 06:03:42;;;;;;;90.33;49.00;;;;;;;40.10;38.37;101125.41;4825095;29;20452;-71
2023/01/07 06:06:08;;;;;;;88.07;49.03;;;;;;;40.02;38.58;101132.34;4824935;29;20448;-71
2023/01/07 06:08:38;;;;;;;89.00;51.23;;;;;;;39.95;38.33;101140.16;4825024;29;20428;-71
2023/01/07 06:11:06;;;;;;;93.20;51.23;;;;;;;39.87;38.59;101147.16;4841487;29;20452;-72
2023/01/07 06:13:32;;;;;;;78.13;49.27;;;;;;;39.85;38.45;101146.69;4824851;29;20472;-71
2023/01/07 06:16:07;;;;;;;88.10;55.47;;;;;;;39.87;38.66;101154.53;4824651;29;20452;-71
2023/01/07 06:18:33;;;;;;;85.97;51.23;;;;;;;40.00;38.58;101148.97;4824811;29;20444;-71
2023/01/07 06:20:59;;;;;;;87.50;54.40;;;;;;;39.83;38.33;101164.41;4824895;29;21017;-71
2023/01/07 06:23:25;;;;;;;98.97;55.27;;;;;;;39.87;38.36;101162.66;4825364;29;20439;-71
2023/01/07 06:25:51;;;;;;;94.70;50.47;;;;;;;39.92;38.16;101167.97;4828062;29;20926;-71
2023/01/07 06:28:17;;;;;;;90.03;49.37;;;;;;;39.86;38.36;101163.78;4827893;29;20428;-72
2023/01/07 06:30:44;;;;;;;95.77;54.67;;;;;;;39.82;38.22;101173.66;4827743;29;20449;-71
2023/01/07 06:33:11;;;;;;;103.80;56.20;;;;;;;39.83;38.61;101178.78;4827939;29;20425;-71
2023/01/07 06:35:37;;;;;;;95.63;56.43;;;;;;;39.58;38.56;101173.97;4844583;29;20958;-71
2023/01/07 06:38:03;;;;;;;82.73;52.87;;;;;;;39.55;38.70;101183.56;4844680;29;20431;-71
2023/01/07 06:40:29;;;;;;;78.37;49.17;;;;;;;39.40;39.09;101190.13;4827226;29;20814;-71
2023/01/07 06:42:56;;;;;;;83.10;51.50;;;;;;;39.52;38.83;101196.94;4840886;29;20559;-72
2023/01/07 06:45:22;;;;;;;88.67;58.33;;;;;;;39.67;38.32;101194.69;4827093;29;20437;-72
2023/01/07 06:47:48;;;;;;;104.67;58.53;;;;;;;39.73;38.38;101204.31;4827164;29;20812;-72
2023/01/07 06:50:15;;;;;;;73.23;55.83;;;;;;;39.84;38.46;101199.41;4827335;29;20425;-72
2023/01/07 06:52:42;;;;;;;100.47;66.53;;;;;;;39.91;38.04;101204.41;4826977;29;20460;-72
2023/01/07 06:55:08;;;;;;;133.23;86.43;;;;;;;39.61;38.43;101212.22;4826803;29;20563;-72
2023/01/07 06:57:35;;;;;;;132.70;83.17;;;;;;;39.05;39.28;101216.19;4843455;29;20777;-72
2023/01/07 07:00:01;;;;;;;156.40;111.30;;;;;;;39.11;39.54;101220.41;4826947;29;20433;-72
2023/01/07 07:02:28;;;;;;;81.33;63.93;;;;;;;39.16;39.41;101225.72;4826891;29;20459;-72
2023/01/07 07:04:54;;;;;;;110.03;66.97;;;;;;;39.25;39.76;101225.00;4827201;29;20511;-72
2023/01/07 07:07:20;;;;;;;91.50;59.13;;;;;;;39.20;39.28;101234.84;4824373;29;20894;-72
2023/01/07 07:09:49;;;;;;;103.63;70.97;;;;;;;39.47;39.34;101239.41;4823768;29;20414;-72
2023/01/07 07:12:16;;;;;;;105.47;64.13;;;;;;;39.74;38.64;101237.69;4814370;29;21009;-72
2023/01/07 07:14:42;;;;;;;111.53;65.37;;;;;;;39.66;38.73;101247.38;4830291;29;20902;-72
2023/01/07 07:17:08;;;;;;;106.30;67.07;;;;;;;39.76;38.54;101240.88;4818206;29;20988;-77
2023/01/07 07:19:34;;;;;;;102.10;55.47;;;;;;;39.79;38.63;101239.47;4816753;29;20441;-72
2023/01/07 07:22:00;;;;;;;91.60;52.67;;;;;;;39.93;38.50;101234.75;4839828;29;20806;-77
2023/01/07 07:24:26;;;;;;;72.03;49.30;;;;;;;39.87;38.48;101255.81;4840886;29;20443;-77
2023/01/07 07:26:52;;;;;;;66.63;48.67;;;;;;;40.02;38.23;101263.59;4843160;29;20431;-71
2023/01/07 07:29:18;;;;;;;79.23;53.20;;;;;;;40.09;37.96;101263.19;4842510;29;20477;-73
2023/01/07 07:31:44;;;;;;;91.07;50.00;;;;;;;40.11;37.73;101268.28;4827756;29;20552;-72
2023/01/07 07:34:13;;;;;;;81.30;51.03;;;;;;;40.07;37.82;101267.31;4835897;29;20581;-72
2023/01/07 07:36:39;;;;;;;79.27;52.67;;;;;;;39.94;38.51;101269.75;4793230;29;20946;-73
2023/01/07 07:39:05;;;;;;;77.93;50.80;;;;;;;39.92;38.28;101280.16;4808554;29;20433;-77
2023/01/07 07:41:31;;;;;;;78.67;52.47;;;;;;;40.13;38.21;101282.38;4824274;29;20531;-76
2023/01/07 07:43:57;;;;;;;91.03;49.90;;;;;;;40.04;38.39;101285.03;4811451;29;20484;-76
2023/01/07 07:46:23;;;;;;;86.50;50.80;;;;;;;39.91;38.35;101285.91;4843182;29;20425;-76
2023/01/07 07:48:49;;;;;;;74.63;45.27;;;;;;;39.95;38.66;101287.66;4826435;29;20435;-77
2023/01/07 07:51:15;;;;;;;94.83;47.60;;;;;;;40.00;38.38;101292.16;4826146;29;20436;-77
2023/01/07 07:53:41;;;;;;;89.57;47.50;;;;;;;39.93;38.50;101295.31;4826051;29;20442;-77
2023/01/07 07:56:07;;;;;;;92.70;51.40;;;;;;;40.01;38.61;101291.84;4824951;29;20968;-73
2023/01/07 07:58:34;;;;;;;77.20;52.87;;;;;;;40.20;38.23;101294.38;4825295;29;20436;-73
2023/01/07 08:00:59;;;;;;;103.43;50.77;;;;;;;40.32;38.03;101295.72;4824079;29;20464;-74
2023/01/07 08:03:25;;;;;;;99.90;52.00;;;;;;;39.85;38.82;101292.56;4825306;29;20433;-74
2023/01/07 08:05:51;;;;;;;78.03;50.33;;;;;;;40.15;38.56;101286.38;4825322;29;20946;-74
2023/01/07 08:08:17;;;;;;;85.10;50.20;;;;;;;40.04;38.83;101295.91;4825273;29;20462;-73
2023/01/07 08:10:43;;;;;;;87.47;45.50;;;;;;;39.85;38.45;101296.09;4825181;29;20508;-73
2023/01/07 08:13:09;;;;;;;105.57;49.60;;;;;;;40.07;38.75;101289.03;4842327;29;20436;-76
2023/01/07 08:15:36;;;;;;;101.17;53.03;;;;;;;40.01;38.86;101296.47;4842255;29;20935;-73
2023/01/07 08:18:05;;;;;;;104.90;56.40;;;;;;;40.14;38.39;101292.91;4825542;29;20961;-73
2023/01/07 08:20:33;;;;;;;95.70;45.13;;;;;;;40.20;38.70;101288.94;4840075;29;20460;-79
2023/01/07 08:23:04;;;;;;;97.50;47.23;;;;;;;40.04;38.71;101290.47;4823230;29;20957;-72
2023/01/07 08:25:30;;;;;;;96.57;52.83;;;;;;;40.22;38.79;101292.19;4830849;29;20428;-83
2023/01/07 08:28:00;;;;;;;85.90;47.53;;;;;;;40.05;38.81;101277.69;4844227;29;20415;-76
2023/01/07 08:30:27;;;;;;;88.03;48.60;;;;;;;40.20;38.59;101290.88;4825092;29;20448;-75
2023/01/07 08:32:53;;;;;;;89.53;48.03;;;;;;;40.38;38.37;101284.41;4825164;29;20937;-81
2023/01/07 08:35:20;;;;;;;74.33;42.37;;;;;;;40.49;38.02;101293.13;4820660;29;20475;-76
2023/01/07 08:37:46;;;;;;;87.23;44.33;;;;;;;40.18;38.46;101290.38;4837905;29;20428;-75
2023/01/07 08:40:12;;;;;;;93.13;43.57;;;;;;;40.08;38.56;101301.50;4824084;29;20432;-78
2023/01/07 08:42:39;;;;;;;73.17;44.53;;;;;;;40.36;38.61;101294.78;4817109;29;20476;-71
2023/01/07 08:45:07;;;;;;;93.90;52.80;;;;;;;40.33;38.46;101291.88;4817650;29;20972;-79
2023/01/07 08:47:34;;;;;;;81.30;41.90;;;;;;;40.60;37.95;101296.38;4817474;29;20441;-71
2023/01/07 08:50:00;;;;;;;89.77;38.93;;;;;;;40.36;38.44;101296.72;4818500;29;20953;-77
2023/01/07 08:52:27;;;;;;;91.20;43.50;;;;;;;40.57;37.83;101302.41;4820573;29;21067;-78
2023/01/07 08:54:53;;;;;;;112.27;51.90;;;;;;;40.43;38.20;101291.63;4818075;29;20477;-76
2023/01/07 08:57:19;;;;;;;77.77;41.73;;;;;;;40.64;38.07;101303.59;4819273;29;20453;-74
2023/01/07 08:59:45;;;;;;;68.70;33.57;;;;;;;40.66;37.42;101301.34;4819085;29;21018;-71
2023/01/07 09:02:16;;;;;;;70.47;35.30;;;;;;;40.96;37.32;101307.88;4816678;29;20431;-69
2023/01/07 09:04:42;;;;;;;65.27;33.57;;;;;;;40.86;37.03;101302.69;4807056;29;20426;-73
2023/01/07 09:07:08;;;;;;;82.57;36.20;;;;;;;40.70;37.49;101305.03;4820889;29;20429;-74
2023/01/07 09:09:35;;;;;;;71.80;35.10;;;;;;;41.15;36.53;101315.75;4820698;29;20437;-78
2023/01/07 09:12:02;;;;;;;62.10;34.77;;;;;;;41.11;36.60;101312.03;4822278;29;20434;-72
2023/01/07 09:14:31;;;;;;;61.23;29.70;;;;;;;40.82;36.71;101304.41;4822315;29;20474;-77
2023/01/07 09:16:56;;;;;;;85.23;34.43;;;;;;;40.53;37.43;101308.50;4822295;29;20425;-77
2023/01/07 09:19:23;;;;;;;66.00;32.30;;;;;;;41.01;36.85;101309.66;4822181;29;20500;-79
2023/01/07 09:21:50;;;;;;;92.77;34.07;;;;;;;41.18;36.24;101312.38;4822161;29;20435;-76
2023/01/07 09:24:16;;;;;;;66.90;32.40;;;;;;;41.15;35.94;101310.28;4817825;29;20439;-77
2023/01/07 09:26:43;;;;;;;61.83;29.10;;;;;;;41.05;36.18;101314.09;4803315;29;20813;-70
2023/01/07 09:29:09;;;;;;;87.70;32.80;;;;;;;41.29;36.19;101302.78;4789041;29;20415;-74
2023/01/07 09:31:35;;;;;;;73.13;34.40;;;;;;;40.87;36.74;101311.63;4818012;29;20540;-73
2023/01/07 09:34:01;;;;;;;78.57;32.63;;;;;;;41.26;36.09;101303.44;4819074;29;20427;-75
2023/01/07 09:36:27;;;;;;;64.63;33.30;;;;;;;41.42;35.88;101301.03;4821075;29;20446;-69
2023/01/07 09:38:53;;;;;;;52.73;30.07;;;;;;;41.27;35.81;101299.59;4823260;29;20815;-72
2023/01/07 09:41:42;;;;;;;70.77;30.07;;;;;;;41.05;36.20;101305.16;4819349;29;20466;-70
2023/01/07 09:44:24;;;;;;;64.17;31.70;;;;;;;41.37;35.99;101305.84;4821312;29;20899;-75
2023/01/07 09:46:54;;;;;;;74.77;35.30;;;;;;;41.30;36.19;101295.41;4820538;29;20445;-69
2023/01/07 09:49:24;;;;;;;93.07;39.43;;;;;;;41.10;36.51;101298.75;4820747;29;20428;-69
2023/01/07 09:51:57;;;;;;;80.70;30.40;;;;;;;41.00;36.71;101295.22;4820332;29;20435;-73
2023/01/07 09:54:31;;;;;;;76.27;32.90;;;;;;;41.20;36.37;101293.81;4820620;29;20863;-73
2023/01/07 09:56:57;;;;;;;72.20;35.07;;;;;;;40.67;37.15;101283.09;4819611;29;20445;-72
2023/01/07 09:59:24;;;;;;;66.20;31.67;;;;;;;40.45;37.76;101281.22;4821371;29;20440;-71
2023/01/07 10:02:01;;;;;;;62.53;33.10;;;;;;;40.81;36.71;101276.41;4824400;29;20441;-75
2023/01/07 10:04:27;;;;;;;66.67;32.30;;;;;;;40.85;36.98;101283.97;4823660;29;20440;-70
2023/01/07 10:07:55;;;;;;;87.03;33.80;;;;;;;41.17;36.20;101278.09;4824347;29;20442;-74
2023/01/07 10:10:40;;;;;;;72.83;32.57;;;;;;;41.22;36.34;101277.94;4754808;30;20222;-74
2023/01/07 10:13:26;;;;;;;85.17;38.87;;;;;;;41.01;36.76;101283.22;4751825;30;20468;-73
2023/01/07 10:16:06;;;;;;;82.17;33.33;;;;;;;41.04;36.77;101276.34;4803707;29;20481;-71
2023/01/07 10:19:04;;;;;;;70.03;34.40;;;;;;;41.19;36.58;101270.44;4822698;29;20551;-71
2023/01/07 10:21:51;;;;;;;58.63;32.10;;;;;;;41.25;36.10;101269.16;4823009;29;20437;-71
2023/01/07 10:24:23;;;;;;;76.27;31.67;;;;;;;41.61;35.90;101270.75;4826032;29;20416;-74
2023/01/07 10:26:54;;;;;;;90.23;32.63;;;;;;;41.83;35.50;101269.81;4823567;29;20830;-77
2023/01/07 10:29:45;;;;;;;66.10;30.87;;;;;;;41.81;35.35;101272.84;4822828;29;20795;-74
2023/01/07 10:32:16;;;;;;;76.33;37.13;;;;;;;41.93;35.42;101268.63;4811607;29;20485;-77
2023/01/07 10:34:49;;;;;;;64.03;33.53;;;;;;;41.84;35.63;101271.41;4823228;29;20629;-75
2023/01/07 10:37:39;;;;;;;79.60;31.90;;;;;;;41.76;35.56;101255.88;4823029;29;20469;-74
2023/01/07 10:40:11;;;;;;;62.93;30.73;;;;;;;41.81;35.16;101269.34;4821576;29;20943;-73
2023/01/07 10:42:43;;;;;;;65.37;31.20;;;;;;;41.73;35.33;101262.72;4830341;29;20575;-72
2023/01/07 10:45:24;;;;;;;62.20;32.23;;;;;;;41.58;35.93;101255.06;4826839;29;20451;-77
2023/01/07 10:48:08;;;;;;;68.43;29.60;;;;;;;41.74;35.53;101253.50;4826996;29;20497;-78
2023/01/07 10:50:37;;;;;;;70.97;31.57;;;;;;;41.71;35.80;101251.38;4826588;29;20837;-75
2023/01/07 10:53:27;;;;;;;105.27;34.27;;;;;;;41.78;35.42;101248.97;4826641;29;20437;-78
2023/01/07 10:55:56;;;;;;;82.43;32.93;;;;;;;41.79;35.39;101242.41;4826594;29;20555;-78
2023/01/07 10:58:22;;;;;;;65.73;33.37;;;;;;;41.97;35.37;101234.97;4826408;29;20495;-71
2023/01/07 11:00:49;;;;;;;77.03;30.23;;;;;;;41.86;35.30;101239.97;4826781;29;20447;-70
2023/01/07 11:03:23;;;;;;;68.93;35.70;;;;;;;41.27;36.16;101238.91;4842179;29;20464;-71
2023/01/07 11:06:03;;;;;;;80.07;31.30;;;;;;;41.79;35.41;101236.16;4825845;29;20489;-71
2023/01/07 11:08:37;;;;;;;66.67;29.23;;;;;;;41.66;35.67;101243.34;4826020;29;20824;-70
2023/01/07 11:11:06;;;;;;;68.17;28.70;;;;;;;41.73;35.88;101237.41;4825489;29;20428;-70
2023/01/07 11:13:36;;;;;;;67.93;32.20;;;;;;;41.46;36.24;101231.22;4825501;29;20448;-70
2023/01/07 11:16:12;;;;;;;66.17;35.97;;;;;;;41.79;35.55;101231.50;4825116;29;20456;-71
2023/01/07 11:19:05;;;;;;;69.93;35.30;;;;;;;41.73;35.66;101224.59;4824918;29;20567;-75
2023/01/07 11:21:35;;;;;;;86.90;34.47;;;;;;;41.60;36.01;101217.41;4836346;29;20810;-70
2023/01/07 11:24:21;;;;;;;59.53;33.10;;;;;;;41.32;36.25;101212.34;4825761;29;20432;-70
2023/01/07 11:26:48;;;;;;;70.03;34.50;;;;;;;41.69;36.32;101215.50;4825485;29;20433;-70
2023/01/07 11:29:27;;;;;;;59.50;29.07;;;;;;;41.76;35.84;101215.03;4825726;29;20540;-70